Time;durP1;ratioP1;P1;durP2;ratioP2;P2;SDS_P1;SDS_P2;PMS_P1;PMS_P2;Temp;Humidity;BMP_temperature;BMP_pressure;BME280_temperature;BME280_humidity;BME280_pressure;Samples;Min_cycle;Max_cycle;Signal;HPM_P1;HPM_P2
2022/11/23 00:01:23;;;;;;;22.73;20.15;;;8.00;99.90;;;;;;5104753;27;19925;-72
2022/11/23 00:03:52;;;;;;;21.20;18.58;;;8.00;99.90;;;;;;5106665;27;20862;-72
2022/11/23 00:06:19;;;;;;;21.45;19.38;;;8.00;99.90;;;;;;5099811;27;20074;-72
2022/11/23 00:08:45;;;;;;;23.00;20.50;;;8.00;99.90;;;;;;5117641;27;20051;-72
2022/11/23 00:11:12;;;;;;;22.88;20.40;;;8.00;99.90;;;;;;5101263;27;20111;-72
2022/11/23 00:13:39;;;;;;;21.52;19.33;;;8.00;99.90;;;;;;5101709;27;20077;-76
2022/11/23 00:16:16;;;;;;;23.42;21.08;;;8.10;99.90;;;;;;5116461;27;20037;-76
2022/11/23 00:18:43;;;;;;;21.30;19.10;;;8.00;99.90;;;;;;5104169;27;20147;-76
2022/11/23 00:21:15;;;;;;;24.25;21.00;;;8.10;99.90;;;;;;5118661;27;20595;-76
2022/11/23 00:23:41;;;;;;;23.83;21.38;;;8.10;99.90;;;;;;5097404;27;20147;-76
2022/11/23 00:26:07;;;;;;;22.38;20.17;;;8.10;99.90;;;;;;5132215;27;21151;-76
2022/11/23 00:28:36;;;;;;;22.20;19.90;;;8.10;99.90;;;;;;5090634;27;20053;-76
2022/11/23 00:31:02;;;;;;;23.38;20.90;;;8.10;99.90;;;;;;5100238;27;20047;-76
2022/11/23 00:33:27;;;;;;;20.70;18.60;;;8.10;99.90;;;;;;5092060;27;20134;-76
2022/11/23 00:36:04;;;;;;;22.33;19.88;;;8.10;99.90;;;;;;5090176;27;20050;-76
2022/11/23 00:38:30;;;;;;;21.17;18.90;;;8.10;99.90;;;;;;5102548;27;20039;-76
2022/11/23 00:41:01;;;;;;;26.42;21.58;;;8.10;99.90;;;;;;5091704;27;20058;-76
2022/11/23 00:43:27;;;;;;;;;;;8.10;99.90;;;;;;5134276;27;20058;-76
2022/11/23 00:46:26;;;;;;;22.23;19.10;;;8.10;99.90;;;;;;5088193;27;19919;-75
2022/11/23 00:48:54;;;;;;;22.42;20.15;;;8.10;99.90;;;;;;5060124;28;20486;-76
2022/11/23 00:51:23;;;;;;;23.88;20.90;;;8.00;99.90;;;;;;5102119;27;20536;-76
2022/11/23 00:53:49;;;;;;;26.00;22.23;;;8.10;99.90;;;;;;5094838;27;20056;-76
2022/11/23 00:56:17;;;;;;;21.30;19.20;;;8.10;99.90;;;;;;5063598;28;20109;-75
2022/11/23 00:58:49;;;;;;;21.38;19.20;;;8.10;99.90;;;;;;5090441;28;20071;-76
2022/11/23 01:01:28;;;;;;;22.58;20.27;;;8.10;99.90;;;;;;5092907;28;20050;-76
2022/11/23 01:03:58;;;;;;;23.52;21.15;;;8.10;99.90;;;;;;5070688;28;20055;-76
2022/11/23 01:06:27;;;;;;;23.20;20.70;;;8.10;99.90;;;;;;5072620;28;20708;-76
2022/11/23 01:08:59;;;;;;;22.88;20.52;;;8.10;99.90;;;;;;5076855;28;20059;-75
2022/11/23 01:11:27;;;;;;;26.23;21.75;;;8.10;99.90;;;;;;5090993;27;20035;-75
2022/11/23 01:13:53;;;;;;;22.60;20.30;;;8.10;99.90;;;;;;5093279;28;20550;-76
2022/11/23 01:16:22;;;;;;;22.73;19.27;;;8.10;99.90;;;;;;5089709;28;20560;-76
2022/11/23 01:18:52;;;;;;;22.30;19.98;;;8.10;99.90;;;;;;5075203;28;20073;-75
2022/11/23 01:21:18;;;;;;;23.13;20.45;;;8.10;99.90;;;;;;5085877;28;20073;-76
2022/11/23 01:23:43;;;;;;;26.23;22.25;;;8.00;99.90;;;;;;5042400;28;20043;-76
2022/11/23 01:26:10;;;;;;;22.08;19.67;;;8.10;99.90;;;;;;5072416;28;20047;-76
2022/11/23 01:28:38;;;;;;;22.95;20.45;;;8.10;99.90;;;;;;5072602;28;20050;-76
2022/11/23 01:31:10;;;;;;;23.02;20.70;;;8.10;99.90;;;;;;5076595;28;20078;-76
2022/11/23 01:33:36;;;;;;;23.17;20.52;;;8.10;99.90;;;;;;5078574;28;20065;-76
2022/11/23 01:36:16;;;;;;;23.92;21.42;;;8.10;99.90;;;;;;5099510;28;20032;-76
2022/11/23 01:38:43;;;;;;;27.35;22.95;;;8.10;99.90;;;;;;5105555;28;20059;-76
2022/11/23 01:41:13;;;;;;;23.67;21.20;;;8.10;99.90;;;;;;5050679;28;20036;-76
2022/11/23 01:43:39;;;;;;;25.33;21.48;;;8.10;99.90;;;;;;5085753;28;20052;-76
2022/11/23 01:46:05;;;;;;;24.10;21.73;;;8.10;99.90;;;;;;5085172;27;20104;-76
2022/11/23 01:48:47;;;;;;;22.33;19.92;;;8.10;99.90;;;;;;5113212;27;20051;-76
2022/11/23 01:51:20;;;;;;;24.30;20.08;;;8.10;99.90;;;;;;5117257;27;20055;-75
2022/11/23 01:53:47;;;;;;;;;;;8.10;99.90;;;;;;5102620;27;20133;-76
2022/11/23 01:56:28;;;;;;;23.42;21.08;;;8.10;99.90;;;;;;5109854;27;19919;-76
2022/11/23 01:58:56;;;;;;;23.35;20.38;;;8.10;99.90;;;;;;5121606;27;20046;-76
2022/11/23 02:01:22;;;;;;;21.92;19.73;;;8.20;99.90;;;;;;5096299;27;20051;-76
2022/11/23 02:03:49;;;;;;;21.20;19.08;;;8.10;99.90;;;;;;5083052;27;20059;-76
2022/11/23 02:06:19;;;;;;;22.85;20.48;;;8.10;99.90;;;;;;5117759;27;20042;-76
2022/11/23 02:08:46;;;;;;;22.85;20.52;;;8.10;99.90;;;;;;5101326;27;20858;-76
2022/11/23 02:11:13;;;;;;;24.33;21.83;;;8.20;99.90;;;;;;5087528;27;20739;-76
2022/11/23 02:13:41;;;;;;;27.55;23.17;;;8.10;99.90;;;;;;5088390;27;20489;-76
2022/11/23 02:16:07;;;;;;;24.85;22.10;;;8.20;99.90;;;;;;5112577;27;20048;-75
2022/11/23 02:18:35;;;;;;;26.65;23.10;;;8.20;99.90;;;;;;5092256;27;20042;-77
2022/11/23 02:21:03;;;;;;;27.08;23.42;;;8.20;99.90;;;;;;5114009;27;20054;-76
2022/11/23 02:23:38;;;;;;;28.83;22.38;;;8.20;99.90;;;;;;5114410;27;20783;-75
2022/11/23 02:26:31;;;;;;;25.63;21.45;;;8.20;99.90;;;;;;5114823;27;20047;-76
2022/11/23 02:29:21;;;;;;;24.10;21.63;;;8.20;99.90;;;;;;5142755;27;20482;-76
2022/11/23 02:31:53;;;;;;;30.08;24.92;;;8.10;99.90;;;;;;5112898;27;21108;-76
2022/11/23 02:34:22;;;;;;;26.50;23.65;;;8.10;99.90;;;;;;5112502;27;20103;-76
2022/11/23 02:36:51;;;;;;;25.63;23.02;;;8.10;99.90;;;;;;5116156;27;20047;-76
2022/11/23 02:39:23;;;;;;;27.17;24.40;;;8.10;99.90;;;;;;5117496;27;20047;-76
2022/11/23 02:41:52;;;;;;;29.90;22.42;;;8.10;99.90;;;;;;5115270;27;20342;-76
2022/11/23 02:44:24;;;;;;;25.13;22.50;;;8.10;99.90;;;;;;5098717;27;20088;-76
2022/11/23 02:46:51;;;;;;;26.25;23.35;;;8.20;99.90;;;;;;5104485;27;21456;-76
2022/11/23 02:49:17;;;;;;;31.45;27.65;;;8.20;99.90;;;;;;5082111;27;20055;-76
2022/11/23 02:51:43;;;;;;;30.83;26.40;;;8.10;99.90;;;;;;5117862;27;20051;-76
2022/11/23 02:54:08;;;;;;;29.85;24.85;;;8.20;99.90;;;;;;5116434;27;20049;-77
2022/11/23 02:56:34;;;;;;;28.85;25.77;;;8.20;99.90;;;;;;5083626;27;20131;-76
2022/11/23 02:59:00;;;;;;;29.40;26.30;;;8.20;99.90;;;;;;5117325;27;20031;-76
2022/11/23 03:01:27;;;;;;;30.38;25.30;;;8.20;99.90;;;;;;5098250;27;20670;-76
2022/11/23 03:03:53;;;;;;;28.10;25.05;;;8.20;99.90;;;;;;5094246;27;20130;-76
2022/11/23 03:06:19;;;;;;;33.92;26.10;;;8.20;99.90;;;;;;5117057;27;20173;-76
2022/11/23 03:08:44;;;;;;;28.33;24.92;;;8.20;99.90;;;;;;5098325;27;20047;-75
2022/11/23 03:11:10;;;;;;;29.88;24.92;;;8.20;99.90;;;;;;5114494;27;20043;-77
2022/11/23 03:13:36;;;;;;;34.85;27.95;;;8.20;99.90;;;;;;5112184;27;20077;-76
2022/11/23 03:16:05;;;;;;;39.03;29.33;;;8.20;99.90;;;;;;5105627;27;20042;-76
2022/11/23 03:18:31;;;;;;;37.78;28.50;;;8.20;99.90;;;;;;5102240;27;20126;-75
2022/11/23 03:21:06;;;;;;;32.90;26.80;;;8.20;99.90;;;;;;5119459;27;20467;-76
2022/11/23 03:23:32;;;;;;;40.40;30.05;;;8.20;99.90;;;;;;5125160;27;20055;-76
2022/11/23 03:26:02;;;;;;;35.10;27.17;;;8.20;99.90;;;;;;5071574;27;20064;-76
2022/11/23 03:28:28;;;;;;;37.63;29.42;;;8.30;99.90;;;;;;5107509;27;20305;-77
2022/11/23 03:30:53;;;;;;;35.78;28.75;;;8.30;99.90;;;;;;5077311;27;20061;-76
2022/11/23 03:33:20;;;;;;;35.30;28.10;;;8.30;99.90;;;;;;5101647;27;20495;-76
2022/11/23 03:35:46;;;;;;;37.03;29.08;;;8.30;99.90;;;;;;5098583;27;20039;-76
2022/11/23 03:38:12;;;;;;;44.95;30.90;;;8.30;99.90;;;;;;5122759;27;20504;-76
2022/11/23 03:40:42;;;;;;;35.92;27.92;;;8.30;99.90;;;;;;5098529;27;20052;-76
2022/11/23 03:43:08;;;;;;;37.97;28.15;;;8.20;99.90;;;;;;5089611;27;20654;-76
2022/11/23 03:45:33;;;;;;;40.42;30.60;;;8.20;99.90;;;;;;5129715;27;20043;-76
2022/11/23 03:47:59;;;;;;;40.72;30.58;;;8.20;99.90;;;;;;5115514;27;20108;-76
2022/11/23 03:50:25;;;;;;;41.85;31.27;;;8.20;99.90;;;;;;5096882;27;20062;-77
2022/11/23 03:52:51;;;;;;;37.92;30.60;;;8.20;99.90;;;;;;5099932;27;20071;-76
2022/11/23 03:55:17;;;;;;;51.08;33.55;;;8.30;99.90;;;;;;5113106;27;20066;-76
2022/11/23 03:57:43;;;;;;;41.88;30.58;;;8.20;99.90;;;;;;5131729;27;20430;-76
2022/11/23 04:00:10;;;;;;;47.33;34.15;;;8.30;99.90;;;;;;5065461;27;20047;-76
2022/11/23 04:02:35;;;;;;;41.38;32.33;;;8.20;99.90;;;;;;5113333;27;20504;-76
2022/11/23 04:05:01;;;;;;;46.55;32.38;;;8.30;99.90;;;;;;5081875;27;20055;-76
2022/11/23 04:07:27;;;;;;;44.85;32.17;;;8.20;99.90;;;;;;5099244;27;20493;-76
2022/11/23 04:09:53;;;;;;;44.70;33.38;;;8.30;99.90;;;;;;5123361;27;21498;-76
2022/11/23 04:12:19;;;;;;;53.95;36.65;;;8.20;99.90;;;;;;5080760;27;20113;-76
2022/11/23 04:14:45;;;;;;;52.55;36.55;;;8.10;99.90;;;;;;5101211;27;20032;-76
2022/11/23 04:17:11;;;;;;;46.42;35.10;;;8.30;99.90;;;;;;5117056;27;20062;-76
2022/11/23 04:19:36;;;;;;;46.28;35.75;;;8.20;99.90;;;;;;5139158;27;20070;-77
2022/11/23 04:22:05;;;;;;;53.22;38.97;;;8.20;99.90;;;;;;5114517;27;20043;-76
2022/11/23 04:24:31;;;;;;;48.33;36.28;;;8.20;99.90;;;;;;5099753;27;20489;-76
2022/11/23 04:26:57;;;;;;;50.38;36.60;;;8.20;99.90;;;;;;5099323;27;20138;-76
2022/11/23 04:29:22;;;;;;;52.67;37.40;;;8.30;99.90;;;;;;5148096;27;20059;-76
2022/11/23 04:31:48;;;;;;;47.42;34.70;;;8.30;99.90;;;;;;5103172;27;20297;-76
2022/11/23 04:34:33;;;;;;;51.85;36.15;;;8.30;99.90;;;;;;5119075;27;20031;-76
2022/11/23 04:37:02;;;;;;;59.28;38.53;;;8.30;99.90;;;;;;5117336;27;20034;-76
2022/11/23 04:39:28;;;;;;;53.63;34.78;;;8.30;99.90;;;;;;5112990;27;20066;-75
2022/11/23 04:41:57;;;;;;;46.50;36.07;;;8.30;99.90;;;;;;5114027;27;20680;-76
2022/11/23 04:44:23;;;;;;;46.92;34.92;;;8.20;99.90;;;;;;5119372;27;20053;-76
2022/11/23 04:46:49;;;;;;;50.15;37.33;;;8.20;99.90;;;;;;5099209;27;20052;-77
2022/11/23 04:49:16;;;;;;;51.85;36.67;;;8.20;99.90;;;;;;5116869;27;20066;-75
2022/11/23 04:51:42;;;;;;;45.63;36.38;;;8.20;99.90;;;;;;5081157;27;20134;-77
2022/11/23 04:54:08;;;;;;;44.22;35.13;;;8.20;99.90;;;;;;5113592;27;20117;-76
2022/11/23 04:56:34;;;;;;;53.10;37.58;;;8.20;99.90;;;;;;5099401;27;20191;-76
2022/11/23 04:59:03;;;;;;;58.60;39.55;;;8.20;99.90;;;;;;5098004;27;20062;-77
2022/11/23 05:01:32;;;;;;;47.50;35.63;;;8.20;99.90;;;;;;5112228;27;20040;-76
2022/11/23 05:03:58;;;;;;;51.30;36.83;;;8.30;99.90;;;;;;5109657;27;20077;-76
2022/11/23 05:06:24;;;;;;;50.03;35.58;;;8.30;99.90;;;;;;5078572;27;20092;-77
2022/11/23 05:08:53;;;;;;;43.63;34.67;;;8.20;99.90;;;;;;5114655;27;20083;-76
2022/11/23 05:11:21;;;;;;;47.90;36.33;;;8.30;99.90;;;;;;5077144;27;20071;-77
2022/11/23 05:13:47;;;;;;;45.40;34.53;;;8.20;99.90;;;;;;5117272;27;20099;-77
2022/11/23 05:16:13;;;;;;;46.67;34.85;;;8.30;99.90;;;;;;5107337;27;20054;-77
2022/11/23 05:18:39;;;;;;;45.67;35.20;;;8.30;99.90;;;;;;5144106;27;20107;-76
2022/11/23 05:21:05;;;;;;;43.50;33.72;;;8.30;99.90;;;;;;5092401;27;20486;-77
2022/11/23 05:23:33;;;;;;;42.72;33.88;;;8.30;99.90;;;;;;5113825;27;20055;-76
2022/11/23 05:25:59;;;;;;;45.00;35.28;;;8.20;99.90;;;;;;5097941;27;20493;-76
2022/11/23 05:28:25;;;;;;;42.10;32.35;;;8.30;99.90;;;;;;5098165;27;20103;-76
2022/11/23 05:30:50;;;;;;;44.35;31.85;;;8.30;99.90;;;;;;5116545;27;20096;-77
2022/11/23 05:33:16;;;;;;;37.88;29.77;;;8.20;99.90;;;;;;5109221;27;20088;-77
2022/11/23 05:35:42;;;;;;;42.50;30.70;;;8.30;99.90;;;;;;5116914;27;20047;-77
2022/11/23 05:38:08;;;;;;;38.05;29.85;;;8.20;99.90;;;;;;5116435;27;20467;-77
2022/11/23 05:40:34;;;;;;;39.67;30.25;;;8.30;99.90;;;;;;5097537;27;20114;-76
2022/11/23 05:43:00;;;;;;;37.60;30.20;;;8.20;99.90;;;;;;5081641;27;20111;-76
2022/11/23 05:45:26;;;;;;;36.00;27.92;;;8.20;99.90;;;;;;5097566;27;21299;-77
2022/11/23 05:47:57;;;;;;;34.97;28.45;;;8.20;99.90;;;;;;5116284;27;20051;-77
2022/11/23 05:50:25;;;;;;;34.05;25.92;;;8.20;99.90;;;;;;5096709;27;20051;-76
2022/11/23 05:52:51;;;;;;;33.80;25.35;;;8.20;99.90;;;;;;5112896;27;20096;-77
2022/11/23 05:55:17;;;;;;;31.42;25.50;;;8.10;99.90;;;;;;5113026;27;20035;-76
2022/11/23 05:57:43;;;;;;;28.67;23.17;;;8.20;99.90;;;;;;5111784;27;20059;-77
2022/11/23 06:00:09;;;;;;;31.73;25.48;;;8.10;99.90;;;;;;5115200;27;20171;-76
2022/11/23 06:02:41;;;;;;;32.75;23.48;;;8.10;99.90;;;;;;5108029;27;20051;-77
2022/11/23 06:05:07;;;;;;;27.30;22.67;;;8.10;99.90;;;;;;5113804;27;20096;-76
2022/11/23 06:07:34;;;;;;;28.13;22.85;;;8.00;99.90;;;;;;5096970;27;20071;-77
2022/11/23 06:10:00;;;;;;;35.03;23.73;;;8.00;99.90;;;;;;5090616;27;20156;-76
2022/11/23 06:12:27;;;;;;;32.38;22.83;;;8.00;99.90;;;;;;5081140;27;20103;-76
2022/11/23 06:14:54;;;;;;;31.27;22.98;;;8.00;99.90;;;;;;5116015;27;20512;-77
2022/11/23 06:17:19;;;;;;;29.42;22.88;;;8.00;99.90;;;;;;5085013;27;20859;-77
2022/11/23 06:19:45;;;;;;;32.25;22.92;;;7.90;99.90;;;;;;5117501;27;20046;-76
2022/11/23 06:22:11;;;;;;;25.20;20.83;;;7.90;99.90;;;;;;5097931;27;20035;-77
2022/11/23 06:24:40;;;;;;;25.02;20.27;;;7.80;99.90;;;;;;5098543;27;20043;-76
2022/11/23 06:27:06;;;;;;;27.75;21.10;;;7.90;99.90;;;;;;5115690;27;20494;-77
2022/11/23 06:29:32;;;;;;;25.67;20.90;;;7.90;99.90;;;;;;5117255;27;20047;-77
2022/11/23 06:31:58;;;;;;;28.67;21.05;;;7.80;99.90;;;;;;5082976;27;20036;-78
2022/11/23 06:34:25;;;;;;;30.75;21.77;;;7.90;99.90;;;;;;5093943;27;20320;-78
2022/11/23 06:36:50;;;;;;;28.95;20.33;;;7.90;99.90;;;;;;5082723;27;20107;-78
2022/11/23 06:39:20;;;;;;;24.75;19.83;;;7.80;99.90;;;;;;5096310;27;20057;-78
2022/11/23 06:41:46;;;;;;;25.88;20.58;;;7.80;99.90;;;;;;5101100;27;20305;-78
2022/11/23 06:44:12;;;;;;;30.55;21.33;;;7.80;99.90;;;;;;5098353;27;20405;-78
2022/11/23 06:46:37;;;;;;;28.42;19.08;;;7.80;99.90;;;;;;5117352;27;20043;-78
2022/11/23 06:49:03;;;;;;;27.67;20.67;;;7.80;99.90;;;;;;5115356;27;20181;-78
2022/11/23 06:51:29;;;;;;;26.42;19.30;;;7.80;99.90;;;;;;5086596;27;20043;-78
2022/11/23 06:53:55;;;;;;;31.85;21.48;;;7.80;99.90;;;;;;5084607;27;20047;-78
2022/11/23 06:56:21;;;;;;;25.42;18.48;;;7.90;99.90;;;;;;5057271;27;20084;-78
2022/11/23 06:58:47;;;;;;;26.00;18.15;;;7.90;99.90;;;;;;5051222;27;20736;-78
2022/11/23 07:01:12;;;;;;;27.48;19.15;;;7.90;99.90;;;;;;5072430;27;20043;-78
2022/11/23 07:03:38;;;;;;;26.30;18.33;;;7.80;99.90;;;;;;5089284;27;20467;-78
2022/11/23 07:06:06;;;;;;;27.75;18.25;;;7.80;99.90;;;;;;5102314;27;21257;-78
2022/11/23 07:08:33;;;;;;;30.38;17.45;;;7.80;99.90;;;;;;5053756;27;20058;-78
2022/11/23 07:11:01;;;;;;;25.38;16.92;;;7.90;99.90;;;;;;5096746;27;20086;-79
2022/11/23 07:13:27;;;;;;;23.73;14.75;;;7.80;99.90;;;;;;5114864;27;20070;-78
2022/11/23 07:15:53;;;;;;;20.30;15.00;;;7.80;99.90;;;;;;5073008;27;20461;-79
2022/11/23 07:18:19;;;;;;;23.92;15.73;;;7.80;99.90;;;;;;5072293;27;20051;-78
2022/11/23 07:20:45;;;;;;;21.27;13.68;;;7.80;99.90;;;;;;5070071;27;20482;-78
2022/11/23 07:23:10;;;;;;;24.38;15.18;;;7.80;99.90;;;;;;5071163;27;20045;-78
2022/11/23 07:25:37;;;;;;;24.48;15.05;;;7.90;99.90;;;;;;5069115;27;20281;-78
2022/11/23 07:28:05;;;;;;;24.08;15.38;;;7.80;99.90;;;;;;5088642;27;20043;-78
2022/11/23 07:30:32;;;;;;;20.10;13.77;;;7.80;99.90;;;;;;5090118;27;20475;-78
2022/11/23 07:33:00;;;;;;;26.92;13.45;;;7.80;99.90;;;;;;5055569;27;20051;-77
2022/11/23 07:35:26;;;;;;;22.50;12.60;;;7.80;99.90;;;;;;5090865;27;20070;-78
2022/11/23 07:37:51;;;;;;;27.60;13.80;;;7.80;99.90;;;;;;5073331;27;20043;-79
2022/11/23 07:40:17;;;;;;;22.85;14.23;;;7.80;99.90;;;;;;5087677;27;20184;-78
2022/11/23 07:42:43;;;;;;;20.98;13.30;;;7.80;99.90;;;;;;5072633;27;20195;-78
2022/11/23 07:45:10;;;;;;;23.92;13.27;;;7.80;99.90;;;;;;5113758;27;20082;-78
2022/11/23 07:47:36;;;;;;;21.30;12.63;;;7.80;99.90;;;;;;5121647;27;20054;-78
2022/11/23 07:50:04;;;;;;;22.92;12.75;;;7.80;99.90;;;;;;5114714;27;20123;-78
2022/11/23 07:52:30;;;;;;;24.10;13.60;;;7.80;99.90;;;;;;5107126;27;20191;-78
2022/11/23 07:54:56;;;;;;;22.63;11.80;;;7.80;99.90;;;;;;5083143;27;20092;-78
2022/11/23 07:57:24;;;;;;;25.33;13.07;;;7.80;99.90;;;;;;5081036;27;20138;-78
2022/11/23 07:59:50;;;;;;;18.48;12.55;;;7.80;99.90;;;;;;5099104;27;20077;-78
2022/11/23 08:02:16;;;;;;;17.10;11.30;;;7.90;99.90;;;;;;5078729;27;20044;-81
2022/11/23 08:04:42;;;;;;;25.85;13.27;;;7.90;99.90;;;;;;5105263;27;20047;-81
2022/11/23 08:07:08;;;;;;;21.85;11.25;;;7.80;99.90;;;;;;5087643;27;20143;-81
2022/11/23 08:09:33;;;;;;;19.15;10.80;;;7.90;99.90;;;;;;5112890;27;20043;-81
2022/11/23 08:11:59;;;;;;;20.92;11.15;;;7.90;99.90;;;;;;5109810;27;20460;-81
2022/11/23 08:14:25;;;;;;;21.65;11.07;;;7.90;99.90;;;;;;5094509;27;20039;-81
2022/11/23 08:16:51;;;;;;;19.38;10.85;;;7.80;99.90;;;;;;5094874;27;20039;-80
2022/11/23 08:19:17;;;;;;;19.38;10.88;;;7.80;99.90;;;;;;5098594;27;20035;-80
2022/11/23 08:21:44;;;;;;;20.67;10.52;;;7.90;99.90;;;;;;5078822;27;20044;-80
2022/11/23 08:24:10;;;;;;;22.60;11.85;;;7.90;99.90;;;;;;5113797;27;20074;-74
2022/11/23 08:26:36;;;;;;;21.83;11.80;;;7.90;99.90;;;;;;5095579;27;20441;-73
2022/11/23 08:29:02;;;;;;;19.83;11.20;;;7.90;99.90;;;;;;5111621;27;20032;-74
2022/11/23 08:31:29;;;;;;;23.08;10.80;;;7.90;99.90;;;;;;5095852;27;20603;-74
2022/11/23 08:33:55;;;;;;;20.65;10.63;;;7.90;99.90;;;;;;5095495;27;20046;-74
2022/11/23 08:36:27;;;;;;;21.40;11.18;;;8.00;99.90;;;;;;5095743;27;20562;-74
2022/11/23 08:38:53;;;;;;;22.52;10.77;;;8.10;99.90;;;;;;5095741;27;20058;-73
2022/11/23 08:41:25;;;;;;;18.42;10.38;;;8.00;99.90;;;;;;5082044;27;20745;-74
2022/11/23 08:43:54;;;;;;;22.40;11.50;;;8.10;99.90;;;;;;5097580;27;20463;-75
2022/11/23 08:46:20;;;;;;;18.92;10.73;;;8.10;99.90;;;;;;5122748;27;20065;-74
2022/11/23 08:48:45;;;;;;;19.98;10.63;;;8.20;99.90;;;;;;5080012;27;20661;-75
2022/11/23 08:51:21;;;;;;;17.95;10.77;;;8.20;99.90;;;;;;5120298;27;20047;-75
2022/11/23 08:53:50;;;;;;;14.98;9.63;;;8.30;99.90;;;;;;5077095;27;20440;-74
2022/11/23 08:56:17;;;;;;;19.63;10.20;;;8.30;99.90;;;;;;5101167;27;20035;-74
2022/11/23 08:58:42;;;;;;;19.40;10.48;;;8.30;99.90;;;;;;5120263;27;20046;-74
2022/11/23 09:01:13;;;;;;;17.13;9.32;;;8.30;99.90;;;;;;5114115;27;20053;-74
2022/11/23 09:03:40;;;;;;;19.15;9.23;;;8.40;99.90;;;;;;5074988;27;20047;-74
2022/11/23 09:06:06;;;;;;;16.48;9.15;;;8.40;99.90;;;;;;5096493;27;20254;-74
2022/11/23 09:08:32;;;;;;;19.45;8.90;;;8.40;99.90;;;;;;5094744;27;20051;-74
2022/11/23 09:11:04;;;;;;;17.15;9.73;;;8.40;99.90;;;;;;5097296;27;20532;-75
2022/11/23 09:13:30;;;;;;;21.00;8.57;;;8.40;99.90;;;;;;5095206;27;20124;-75
2022/11/23 09:16:00;;;;;;;20.23;9.52;;;8.50;99.90;;;;;;5076740;27;20481;-75
2022/11/23 09:18:29;;;;;;;17.98;10.05;;;8.50;99.90;;;;;;5098064;27;20233;-76
2022/11/23 09:20:55;;;;;;;18.65;9.38;;;8.50;99.90;;;;;;5100073;27;20054;-74
2022/11/23 09:23:22;;;;;;;19.15;9.18;;;8.50;99.90;;;;;;5095955;27;20061;-74
2022/11/23 09:25:49;;;;;;;15.98;8.45;;;8.40;99.90;;;;;;5098376;27;20082;-75
2022/11/23 09:28:23;;;;;;;18.38;8.45;;;8.50;99.90;;;;;;5096077;27;20039;-74
2022/11/23 09:30:49;;;;;;;18.10;8.30;;;8.50;99.90;;;;;;5095992;27;20042;-74
2022/11/23 09:33:14;;;;;;;19.58;8.15;;;8.60;99.90;;;;;;5095068;27;20050;-81
2022/11/23 09:35:41;;;;;;;19.65;9.15;;;8.60;99.90;;;;;;5111520;27;20039;-81
2022/11/23 09:38:07;;;;;;;21.10;7.70;;;8.60;99.90;;;;;;5093794;27;20049;-80
2022/11/23 09:40:37;;;;;;;18.80;8.05;;;8.60;99.90;;;;;;5099626;27;20043;-80
2022/11/23 09:43:34;;;;;;;20.67;7.93;;;8.60;99.90;;;;;;5095639;27;20035;-81
2022/11/23 09:46:13;;;;;;;19.15;7.57;;;8.60;99.90;;;;;;5099595;27;20359;-81
2022/11/23 09:49:08;;;;;;;20.77;7.15;;;8.70;99.90;;;;;;5147375;27;20203;-81
2022/11/23 09:51:37;;;;;;;17.25;7.47;;;8.70;99.90;;;;;;5101025;27;20051;-81
2022/11/23 09:54:10;;;;;;;21.27;7.45;;;8.70;99.90;;;;;;5136607;27;20056;-81
2022/11/23 09:56:39;;;;;;;16.85;7.28;;;8.70;99.90;;;;;;5104595;27;20121;-81
2022/11/23 09:59:25;;;;;;;18.85;7.43;;;8.80;99.90;;;;;;5121429;27;20051;-81
2022/11/23 10:01:50;;;;;;;18.65;6.60;;;8.70;99.90;;;;;;5118225;27;20051;-81
2022/11/23 10:04:18;;;;;;;18.60;6.68;;;8.80;99.90;;;;;;5117200;27;20047;-80
2022/11/23 10:06:49;;;;;;;18.05;6.40;;;8.80;99.90;;;;;;5110357;27;20114;-82
2022/11/23 10:09:18;;;;;;;14.88;5.93;;;8.80;99.90;;;;;;5121401;27;20485;-81
2022/11/23 10:12:05;;;;;;;16.80;5.72;;;8.90;99.90;;;;;;5119908;27;20043;-80
2022/11/23 10:15:02;;;;;;;15.90;6.40;;;8.90;99.90;;;;;;5117335;27;20051;-81
2022/11/23 10:17:51;;;;;;;16.77;6.32;;;8.90;99.90;;;;;;5124413;27;20151;-81
2022/11/23 10:20:38;;;;;;;17.23;6.30;;;8.90;99.90;;;;;;5101898;27;20051;-81
2022/11/23 10:23:13;;;;;;;18.25;6.38;;;8.90;99.90;;;;;;5099287;27;20441;-81
2022/11/23 10:25:46;;;;;;;16.23;5.45;;;8.90;99.90;;;;;;5124853;27;20129;-80
2022/11/23 10:28:15;;;;;;;17.42;5.97;;;8.90;99.90;;;;;;5102346;27;20394;-81
2022/11/23 10:30:41;;;;;;;17.10;5.70;;;8.90;99.90;;;;;;5121483;27;20083;-81
2022/11/23 10:33:10;;;;;;;15.65;5.60;;;8.80;99.90;;;;;;5084439;27;20047;-81
2022/11/23 10:35:37;;;;;;;15.85;5.13;;;8.90;99.90;;;;;;5118401;27;20051;-81
2022/11/23 10:38:14;;;;;;;14.77;4.93;;;8.80;99.90;;;;;;5084106;27;20396;-81
2022/11/23 10:40:55;;;;;;;15.70;4.80;;;8.80;99.90;;;;;;5114615;27;20047;-81
2022/11/23 10:43:25;;;;;;;13.15;4.93;;;8.80;99.90;;;;;;5133996;27;20405;-81
2022/11/23 10:46:40;;;;;;;17.83;5.73;;;8.80;99.90;;;;;;5124086;27;20043;-82
2022/11/23 10:49:09;;;;;;;18.08;5.03;;;8.80;99.90;;;;;;5084301;27;20133;-81
2022/11/23 10:51:36;;;;;;;18.10;4.63;;;8.80;99.90;;;;;;5122591;27;20046;-81
2022/11/23 10:54:06;;;;;;;20.20;5.07;;;8.80;99.90;;;;;;5118462;27;20095;-81
2022/11/23 10:56:44;;;;;;;15.38;5.07;;;8.80;99.90;;;;;;5113018;27;20051;-81
2022/11/23 10:59:29;;;;;;;18.85;4.95;;;8.90;99.90;;;;;;5097560;27;20112;-80
2022/11/23 11:02:17;;;;;;;18.95;5.10;;;8.90;99.90;;;;;;5101202;27;20390;-81
2022/11/23 11:04:44;;;;;;;19.08;5.32;;;8.90;99.90;;;;;;5110494;27;20047;-81
2022/11/23 11:07:22;;;;;;;16.50;4.47;;;9.00;99.90;;;;;;5111356;27;20122;-82
2022/11/23 11:09:55;;;;;;;17.38;5.05;;;9.00;99.90;;;;;;5109532;27;20051;-81
2022/11/23 11:12:22;;;;;;;15.90;4.18;;;9.10;99.90;;;;;;5114516;27;20509;-81
2022/11/23 11:15:17;;;;;;;14.00;4.05;;;9.10;99.90;;;;;;5091998;27;20047;-81
2022/11/23 11:17:52;;;;;;;15.55;4.07;;;9.20;99.90;;;;;;5081977;27;20485;-81
2022/11/23 11:20:26;;;;;;;17.50;5.40;;;9.30;99.90;;;;;;5129028;27;20338;-81
2022/11/23 11:22:54;;;;;;;19.48;3.97;;;9.40;99.90;;;;;;5108859;27;20058;-81
2022/11/23 11:25:31;;;;;;;14.38;4.18;;;9.50;99.90;;;;;;5123004;27;20055;-80
2022/11/23 11:27:58;;;;;;;16.42;3.70;;;9.50;99.90;;;;;;5095974;27;20122;-81
2022/11/23 11:30:37;;;;;;;13.57;3.95;;;9.60;99.90;;;;;;5099501;27;20067;-80
2022/11/23 11:33:17;;;;;;;17.00;4.25;;;9.60;99.90;;;;;;5144591;27;20596;-79
2022/11/23 11:35:47;;;;;;;15.27;4.35;;;9.60;99.90;;;;;;5111872;27;20111;-80
2022/11/23 11:38:36;;;;;;;13.05;3.53;;;9.60;99.90;;;;;;5121680;27;20065;-81
2022/11/23 11:41:09;;;;;;;16.38;3.65;;;9.70;99.90;;;;;;5111339;27;20053;-80
2022/11/23 11:44:02;;;;;;;17.63;3.83;;;9.70;99.90;;;;;;5142268;27;20537;-80
2022/11/23 11:46:36;;;;;;;11.82;2.88;;;9.70;99.90;;;;;;5098764;27;20055;-81
2022/11/23 11:49:11;;;;;;;11.30;3.50;;;9.70;99.90;;;;;;5124544;27;20468;-81
2022/11/23 11:51:58;;;;;;;10.65;3.15;;;9.80;99.90;;;;;;5116215;27;20050;-80
2022/11/23 11:55:03;;;;;;;14.98;3.67;;;9.80;99.90;;;;;;5105722;27;20058;-81
2022/11/23 11:57:51;;;;;;;16.65;3.75;;;9.80;99.90;;;;;;5108653;27;20071;-80
2022/11/23 12:00:19;;;;;;;12.75;3.90;;;9.80;99.90;;;;;;5111320;27;20071;-81
2022/11/23 12:02:59;;;;;;;14.32;3.25;;;9.90;99.90;;;;;;5108612;27;20529;-81
2022/11/23 12:05:47;;;;;;;13.65;3.67;;;9.90;99.90;;;;;;5111493;27;20047;-81
2022/11/23 12:08:39;;;;;;;13.10;3.40;;;9.90;99.90;;;;;;5109061;27;20551;-81
2022/11/23 12:11:06;;;;;;;16.40;3.35;;;9.90;99.90;;;;;;5107341;27;20499;-82
2022/11/23 12:13:37;;;;;;;9.15;2.97;;;10.00;99.90;;;;;;5079107;27;20174;-81
2022/11/23 12:16:27;;;;;;;12.63;3.08;;;10.00;99.90;;;;;;5119564;27;20529;-82
2022/11/23 12:19:08;;;;;;;10.88;2.60;;;10.00;99.90;;;;;;5090799;27;20126;-82
2022/11/23 12:21:58;;;;;;;12.00;2.63;;;10.10;99.90;;;;;;5110321;27;20396;-81
2022/11/23 12:24:45;;;;;;;10.50;2.80;;;10.10;99.90;;;;;;5092450;27;20236;-82
2022/11/23 12:27:38;;;;;;;12.18;2.70;;;10.20;99.90;;;;;;5095844;27;20082;-81
2022/11/23 12:30:36;;;;;;;12.35;2.65;;;10.10;99.90;;;;;;5096339;27;20043;-80
2022/11/23 12:33:20;;;;;;;11.32;3.40;;;10.10;99.90;;;;;;5062378;27;20043;-80
2022/11/23 12:36:23;;;;;;;12.40;2.80;;;10.10;99.90;;;;;;5093980;27;20064;-82
2022/11/23 12:39:15;;;;;;;11.90;2.83;;;10.10;99.90;;;;;;5095465;27;20283;-83
2022/11/23 12:42:08;;;;;;;12.57;3.08;;;10.10;99.90;;;;;;5103812;27;20055;-82
2022/11/23 12:44:56;;;;;;;9.32;2.20;;;10.00;99.90;;;;;;5116256;27;20126;-83
2022/11/23 12:47:33;;;;;;;12.57;3.22;;;10.00;99.90;;;;;;5108130;27;20064;-83
2022/11/23 12:50:05;;;;;;;13.82;3.03;;;10.00;99.90;;;;;;5112860;27;20074;-82
2022/11/23 12:53:09;;;;;;;9.75;2.63;;;10.00;99.90;;;;;;5111135;27;20148;-82
2022/11/23 12:56:13;;;;;;;10.63;2.92;;;10.00;99.90;;;;;;5093236;27;20031;-82
2022/11/23 12:58:41;;;;;;;11.82;2.67;;;10.00;99.90;;;;;;5056605;27;20497;-83